< < Back
Terminal Aerodrome Forecast


Current Version              Previous Versions:   1  2  3  4  5  6  7  8  9  

Terminal Aerodrome Forecast

293
FTUS44 KBMX 251100
TAFBHM
TAF
KBHM 251123Z 2512/2612 00000KT P6SM SKC
     FM251400 34006KT P6SM SKC=

Latest METAR

698
SAUS70 KWBC 260900 RRD
MTRBHM
METAR KBHM 260853Z 00000KT 7SM CLR 13/13 A3004 RMK AO2 SLP167 T01330128
58009


USA.gov is the U.S. government's official web portal to all federal, state and local government web resources and services.